createdAt,value
2019-03-13T00:01:03.475Z,5.50
2019-03-13T00:03:32.818Z,5.58
2019-03-13T00:06:02.331Z,5.28
2019-03-13T00:08:31.597Z,4.20
2019-03-13T00:11:00.742Z,4.20
2019-03-13T00:13:30.046Z,3.72
2019-03-13T00:15:59.201Z,3.02
2019-03-13T00:18:28.405Z,3.85
2019-03-13T00:20:57.647Z,2.92
2019-03-13T00:23:26.745Z,2.95
2019-03-13T00:25:55.897Z,2.55
2019-03-13T00:28:25.071Z,2.67
2019-03-13T00:30:54.293Z,2.60
2019-03-13T00:33:23.420Z,2.25
2019-03-13T00:35:52.573Z,3.20
2019-03-13T00:38:21.681Z,2.40
2019-03-13T00:40:50.921Z,2.45
2019-03-13T00:43:20.089Z,3.20
2019-03-13T00:45:49.285Z,2.83
2019-03-13T00:48:18.414Z,2.37
2019-03-13T00:50:47.590Z,2.52
2019-03-13T00:53:16.807Z,2.50
2019-03-13T00:55:46.052Z,2.62
2019-03-13T00:58:15.174Z,3.10
2019-03-13T01:01:15.219Z,2.67
2019-03-13T01:03:52.016Z,3.47
2019-03-13T01:06:46.352Z,2.00
2019-03-13T01:09:15.540Z,2.70
2019-03-13T01:11:44.753Z,2.20
2019-03-13T01:14:13.961Z,2.30
2019-03-13T01:16:43.076Z,2.15
2019-03-13T01:19:12.269Z,2.42
2019-03-13T01:21:41.420Z,1.95
2019-03-13T01:24:10.656Z,2.25
2019-03-13T01:26:39.768Z,2.30
2019-03-13T01:29:09.007Z,2.67
2019-03-13T01:32:06.216Z,2.20
2019-03-13T01:34:39.049Z,1.92
2019-03-13T01:37:08.183Z,2.22
2019-03-13T01:39:37.406Z,1.90
2019-03-13T01:42:06.534Z,6.62
2019-03-13T01:44:35.715Z,2.42
2019-03-13T01:47:04.939Z,2.67
2019-03-13T01:49:34.157Z,2.10
2019-03-13T01:52:03.362Z,2.50
2019-03-13T01:54:32.519Z,1.92
2019-03-13T01:57:01.743Z,1.75
2019-03-13T01:59:30.970Z,1.75
2019-03-13T02:02:00.095Z,2.12
2019-03-13T02:04:29.344Z,2.02
2019-03-13T02:06:58.495Z,1.67
2019-03-13T02:09:27.642Z,1.57
2019-03-13T02:11:56.883Z,2.20
2019-03-13T02:14:26.007Z,1.90
2019-03-13T02:16:55.262Z,1.95
2019-03-13T02:19:24.443Z,2.08
2019-03-13T02:21:53.706Z,2.27
2019-03-13T02:24:22.836Z,2.15
2019-03-13T02:26:51.962Z,2.95
2019-03-13T02:29:21.294Z,1.70
2019-03-13T02:31:50.453Z,2.72
2019-03-13T02:34:19.606Z,3.00
2019-03-13T02:36:48.734Z,2.65
2019-03-13T02:39:17.942Z,2.10
2019-03-13T02:41:47.120Z,2.60
2019-03-13T02:44:16.354Z,2.20
2019-03-13T02:46:45.552Z,2.22
2019-03-13T02:49:14.741Z,2.50
2019-03-13T02:51:43.860Z,2.22
2019-03-13T02:54:13.044Z,2.00
2019-03-13T02:56:42.191Z,1.65
2019-03-13T02:59:11.386Z,2.70
2019-03-13T03:01:48.904Z,1.60
2019-03-13T03:04:18.060Z,1.75
2019-03-13T03:06:47.264Z,2.00
2019-03-13T03:09:16.488Z,2.00
2019-03-13T03:11:45.678Z,2.70
2019-03-13T03:14:14.896Z,1.85
2019-03-13T03:16:44.138Z,2.75
2019-03-13T03:19:13.334Z,2.47
2019-03-13T03:21:42.537Z,1.98
2019-03-13T03:24:11.811Z,2.95
2019-03-13T03:26:40.958Z,2.40
2019-03-13T03:29:10.119Z,1.60
2019-03-13T03:31:39.315Z,2.20
2019-03-13T03:34:08.602Z,1.80
2019-03-13T03:36:37.749Z,2.17
2019-03-13T03:39:07.297Z,2.55
2019-03-13T03:41:36.477Z,2.35
2019-03-13T03:44:05.592Z,2.62
2019-03-13T03:46:34.808Z,2.00
2019-03-13T03:49:04.179Z,1.62
2019-03-13T03:51:33.280Z,1.82
2019-03-13T03:54:02.406Z,2.10
2019-03-13T03:56:31.537Z,2.12
2019-03-13T03:59:00.744Z,2.72
2019-03-13T04:01:29.856Z,1.92
2019-03-13T04:03:59.127Z,2.10
2019-03-13T04:06:28.282Z,2.10
2019-03-13T04:08:57.433Z,3.20
2019-03-13T04:11:26.597Z,2.15
2019-03-13T04:13:55.822Z,2.75
2019-03-13T04:16:25.026Z,1.98
2019-03-13T04:18:54.336Z,2.50
2019-03-13T04:21:23.431Z,2.25
2019-03-13T04:23:53.856Z,2.45
2019-03-13T04:26:23.035Z,2.80
2019-03-13T04:28:52.155Z,4.03
2019-03-13T04:31:21.341Z,2.72
2019-03-13T04:33:50.521Z,3.35
2019-03-13T04:36:19.677Z,3.12
2019-03-13T04:38:48.837Z,2.77
2019-03-13T04:41:18.070Z,3.05
2019-03-13T04:43:47.554Z,3.02
2019-03-13T04:46:16.762Z,2.42
2019-03-13T04:48:45.884Z,2.87
2019-03-13T04:51:15.082Z,2.25
2019-03-13T04:53:44.232Z,2.40
2019-03-13T04:56:13.371Z,2.47
2019-03-13T04:58:42.539Z,2.30
2019-03-13T05:01:11.649Z,3.27
2019-03-13T05:03:40.857Z,1.82
2019-03-13T05:06:17.463Z,3.33
2019-03-13T05:08:53.473Z,2.90
2019-03-13T05:11:22.637Z,2.40
2019-03-13T05:13:51.862Z,2.75
2019-03-13T05:16:21.131Z,2.02
2019-03-13T05:18:50.260Z,2.80
2019-03-13T05:21:19.520Z,2.17
2019-03-13T05:23:48.750Z,2.20
2019-03-13T05:26:17.901Z,3.08
2019-03-13T05:28:47.020Z,2.42
2019-03-13T05:31:16.360Z,2.50
2019-03-13T05:33:45.539Z,2.85
2019-03-13T05:36:16.785Z,2.40
2019-03-13T05:38:45.614Z,2.55
2019-03-13T05:41:14.752Z,2.87
2019-03-13T05:43:43.854Z,2.42
2019-03-13T05:46:13.017Z,2.98
2019-03-13T05:48:42.150Z,2.40
2019-03-13T05:51:11.302Z,2.98
2019-03-13T05:53:40.438Z,3.37
2019-03-13T05:56:09.605Z,2.75
2019-03-13T05:58:38.763Z,3.42
2019-03-13T06:01:08.054Z,2.65
2019-03-13T06:03:37.210Z,3.67
2019-03-13T06:06:06.456Z,2.45
2019-03-13T06:08:35.460Z,2.65
2019-03-13T06:11:04.605Z,2.90
2019-03-13T06:13:34.973Z,3.10
2019-03-13T06:16:04.260Z,3.10
2019-03-13T06:18:33.480Z,3.58
2019-03-13T06:21:02.652Z,3.47
2019-03-13T06:23:31.818Z,2.95
2019-03-13T06:26:01.513Z,3.08
2019-03-13T06:28:30.791Z,1.90
2019-03-13T06:31:00.058Z,3.37
2019-03-13T06:33:29.244Z,3.30
2019-03-13T06:35:58.480Z,3.30
2019-03-13T06:38:27.623Z,3.75
2019-03-13T06:40:56.897Z,2.70
2019-03-13T06:43:26.098Z,2.72
2019-03-13T06:45:55.306Z,2.77
2019-03-13T06:48:24.460Z,3.67
2019-03-13T06:50:53.667Z,3.25
2019-03-13T06:53:22.984Z,2.92
2019-03-13T06:55:52.205Z,4.25
2019-03-13T06:58:32.351Z,3.42
2019-03-13T07:01:31.589Z,3.60
2019-03-13T07:04:29.025Z,2.87
2019-03-13T07:07:17.259Z,2.65
2019-03-13T07:10:08.281Z,2.70
2019-03-13T07:12:49.020Z,3.47
2019-03-13T07:15:29.698Z,3.47
2019-03-13T07:18:21.008Z,3.12
2019-03-13T07:21:07.807Z,3.12
2019-03-13T07:23:49.284Z,3.20
2019-03-13T07:26:51.382Z,2.90
2019-03-13T07:29:38.424Z,2.65
2019-03-13T07:32:29.714Z,3.20
2019-03-13T07:35:20.783Z,3.77
2019-03-13T07:38:15.441Z,3.15
2019-03-13T07:40:55.869Z,3.40
2019-03-13T07:43:47.064Z,3.98
2019-03-13T07:46:38.155Z,2.72
2019-03-13T07:49:35.523Z,3.75
2019-03-13T07:52:22.279Z,3.40
2019-03-13T07:55:09.333Z,3.02
2019-03-13T07:57:57.097Z,2.95
2019-03-13T08:00:42.042Z,3.10
2019-03-13T08:03:32.916Z,3.05
2019-03-13T08:06:30.290Z,3.58
2019-03-13T08:09:15.856Z,2.55
2019-03-13T08:12:04.136Z,2.58
2019-03-13T08:15:07.352Z,2.55
2019-03-13T08:17:42.611Z,2.67
2019-03-13T08:20:30.798Z,2.70
2019-03-13T08:23:17.675Z,2.77
2019-03-13T08:25:55.865Z,2.52
2019-03-13T08:28:34.901Z,3.77
2019-03-13T08:31:38.230Z,3.17
2019-03-13T08:34:33.686Z,3.60
2019-03-13T08:37:18.485Z,2.67
2019-03-13T08:39:57.042Z,3.72
2019-03-13T08:42:48.230Z,3.17
2019-03-13T08:45:35.411Z,2.60
2019-03-13T08:48:32.841Z,2.98
2019-03-13T08:51:23.786Z,2.08
2019-03-13T08:54:20.825Z,2.17
2019-03-13T08:57:18.219Z,2.15
2019-03-13T09:00:13.459Z,2.95
2019-03-13T09:03:16.777Z,2.40
2019-03-13T09:06:14.232Z,3.12
2019-03-13T09:09:01.402Z,1.67
2019-03-13T09:11:41.001Z,2.25
2019-03-13T09:14:33.506Z,2.67
2019-03-13T09:17:20.471Z,2.75
2019-03-13T09:20:01.963Z,3.15
2019-03-13T09:22:46.442Z,2.80
2019-03-13T09:25:34.683Z,2.72
2019-03-13T09:28:28.993Z,3.17
2019-03-13T09:31:25.543Z,2.62
2019-03-13T09:34:16.581Z,2.45
2019-03-13T09:36:58.561Z,2.10
2019-03-13T09:39:49.777Z,2.12
2019-03-13T09:42:43.914Z,2.67
2019-03-13T09:45:26.232Z,2.75
2019-03-13T09:48:04.992Z,2.30
2019-03-13T09:50:41.593Z,3.17
2019-03-13T09:53:28.450Z,2.72
2019-03-13T09:56:16.690Z,2.55
2019-03-13T09:59:04.643Z,2.90
2019-03-13T10:01:51.806Z,2.95
2019-03-13T10:04:39.749Z,2.55
2019-03-13T10:07:16.295Z,2.70
2019-03-13T10:10:02.715Z,2.10
2019-03-13T10:12:56.703Z,3.75
2019-03-13T10:15:44.968Z,2.15
2019-03-13T10:18:27.814Z,1.98
2019-03-13T10:21:06.762Z,2.65
2019-03-13T10:24:10.245Z,3.05
2019-03-13T10:26:57.375Z,2.58
2019-03-13T10:29:32.483Z,3.05
2019-03-13T10:32:13.775Z,3.30
2019-03-13T10:34:49.725Z,2.50
2019-03-13T10:37:47.314Z,3.08
2019-03-13T10:40:36.030Z,2.30
2019-03-13T10:43:23.190Z,2.20
2019-03-13T10:46:10.260Z,2.83
2019-03-13T10:48:45.666Z,2.55
2019-03-13T10:51:27.840Z,1.75
2019-03-13T10:54:06.204Z,2.10
2019-03-13T10:56:42.589Z,3.35
2019-03-13T10:59:30.770Z,2.85
2019-03-13T11:02:17.923Z,2.20
2019-03-13T11:05:05.033Z,2.50
2019-03-13T11:07:51.946Z,2.65
2019-03-13T11:10:29.582Z,3.20
2019-03-13T11:13:16.609Z,1.90
2019-03-13T11:16:20.187Z,1.92
2019-03-13T11:18:55.537Z,2.30
2019-03-13T11:21:42.835Z,2.55
2019-03-13T11:24:36.858Z,2.22
2019-03-13T11:27:12.894Z,1.60
2019-03-13T11:30:00.076Z,1.77
2019-03-13T11:32:48.347Z,1.67
2019-03-13T11:35:42.797Z,1.95
2019-03-13T11:38:32.064Z,1.42
2019-03-13T11:41:19.193Z,1.75
2019-03-13T11:44:07.436Z,1.45
2019-03-13T11:46:46.554Z,1.55
2019-03-13T11:49:38.579Z,1.62
2019-03-13T11:52:20.740Z,1.65
2019-03-13T11:54:56.254Z,1.32
2019-03-13T11:57:48.113Z,1.30
2019-03-13T12:00:51.834Z,1.07
2019-03-13T12:03:42.846Z,1.45
2019-03-13T12:06:24.305Z,0.98
2019-03-13T12:09:12.513Z,1.37
2019-03-13T12:11:53.274Z,1.10
2019-03-13T12:14:42.157Z,1.07
2019-03-13T12:17:20.722Z,0.80
2019-03-13T12:20:08.893Z,0.95
2019-03-13T12:22:56.819Z,1.00
2019-03-13T12:25:41.265Z,1.37
2019-03-13T12:28:35.811Z,1.10
2019-03-13T12:31:24.109Z,0.80
2019-03-13T12:34:30.641Z,1.15
2019-03-13T12:37:18.935Z,1.30
2019-03-13T12:39:57.802Z,1.25
2019-03-13T12:42:39.012Z,1.40
2019-03-13T12:45:28.831Z,1.05
2019-03-13T12:48:23.186Z,1.20
2019-03-13T12:51:10.001Z,1.70
2019-03-13T12:54:01.343Z,1.80
2019-03-13T12:56:55.441Z,1.20
2019-03-13T12:59:59.064Z,1.25
2019-03-13T13:02:45.540Z,1.80
2019-03-13T13:05:33.746Z,1.12
2019-03-13T13:08:12.796Z,1.45
2019-03-13T13:10:53.110Z,1.37
2019-03-13T13:13:47.357Z,1.90
2019-03-13T13:16:44.540Z,1.75
2019-03-13T13:19:13.777Z,1.25
2019-03-13T13:21:43.099Z,1.75
2019-03-13T13:24:12.296Z,1.90
2019-03-13T13:26:41.529Z,1.25
2019-03-13T13:29:10.614Z,1.17
2019-03-13T13:31:39.843Z,1.17
2019-03-13T13:34:08.995Z,1.30
2019-03-13T13:36:38.156Z,1.20
2019-03-13T13:39:08.862Z,1.20
2019-03-13T13:41:38.215Z,1.20
2019-03-13T13:44:07.661Z,3.15
2019-03-13T13:46:44.308Z,1.32
2019-03-13T13:49:14.389Z,1.55
2019-03-13T13:51:43.573Z,1.42
2019-03-13T13:54:12.683Z,1.50
2019-03-13T13:56:46.898Z,1.70
2019-03-13T13:59:16.061Z,1.27
2019-03-13T14:01:45.242Z,1.50
2019-03-13T14:04:14.422Z,1.55
2019-03-13T14:06:43.573Z,1.42
2019-03-13T14:09:12.756Z,2.05
2019-03-13T14:11:42.094Z,1.57
2019-03-13T14:14:11.235Z,1.40
2019-03-13T14:16:40.371Z,1.60
2019-03-13T14:19:09.584Z,2.47
2019-03-13T14:21:38.802Z,3.60
2019-03-13T14:24:07.928Z,3.45
2019-03-13T14:26:37.154Z,3.10
2019-03-13T14:29:06.384Z,4.00
2019-03-13T14:31:35.530Z,7.20
2019-03-13T14:34:04.700Z,6.62
2019-03-13T14:36:33.812Z,4.78
2019-03-13T14:39:04.225Z,3.50
2019-03-13T14:41:33.438Z,2.00
2019-03-13T14:44:02.673Z,3.30
2019-03-13T14:46:31.847Z,2.70
2019-03-13T14:49:03.400Z,2.95
2019-03-13T14:51:32.644Z,4.15
2019-03-13T14:54:02.292Z,3.40
2019-03-13T14:56:31.473Z,3.27
2019-03-13T14:59:00.774Z,3.10
2019-03-13T15:01:30.084Z,3.50
2019-03-13T15:03:59.318Z,3.77
2019-03-13T15:06:29.408Z,3.60
2019-03-13T15:08:58.647Z,3.33
2019-03-13T15:11:27.842Z,3.35
2019-03-13T15:13:57.014Z,3.75
2019-03-13T15:16:26.150Z,14.95
2019-03-13T15:18:55.439Z,4.60
2019-03-13T15:21:24.778Z,4.37
2019-03-13T15:23:54.022Z,3.92
2019-03-13T15:26:23.704Z,4.45
2019-03-13T15:28:53.098Z,3.77
2019-03-13T15:31:22.266Z,3.58
2019-03-13T15:33:51.485Z,4.03
2019-03-13T15:36:20.908Z,4.05
2019-03-13T15:38:50.127Z,4.00
2019-03-13T15:41:19.429Z,4.42
2019-03-13T15:43:48.693Z,4.35
2019-03-13T15:46:17.955Z,3.17
2019-03-13T15:48:48.289Z,3.90
2019-03-13T15:51:17.697Z,4.60
2019-03-13T15:53:48.795Z,3.95
2019-03-13T15:56:17.949Z,4.20
2019-03-13T15:58:47.319Z,4.42
2019-03-13T16:01:16.795Z,3.80
2019-03-13T16:03:46.121Z,3.52
2019-03-13T16:06:15.350Z,5.17
2019-03-13T16:08:44.675Z,5.00
2019-03-13T16:11:13.873Z,3.60
2019-03-13T16:13:43.085Z,3.10
2019-03-13T16:16:12.365Z,3.30
2019-03-13T16:18:41.675Z,3.02
2019-03-13T16:21:10.817Z,2.12
2019-03-13T16:23:40.113Z,3.20
2019-03-13T16:26:09.313Z,2.92
2019-03-13T16:28:38.575Z,2.75
2019-03-13T16:31:08.959Z,3.05
2019-03-13T16:33:38.226Z,2.10
2019-03-13T16:36:07.461Z,1.20
2019-03-13T16:38:36.722Z,2.05
2019-03-13T16:41:05.933Z,1.50
2019-03-13T16:43:35.256Z,1.25
2019-03-13T16:46:04.586Z,1.00
2019-03-13T16:48:33.893Z,1.25
2019-03-13T16:51:03.039Z,1.10
2019-03-13T16:53:32.293Z,1.30
2019-03-13T16:56:01.476Z,1.20
2019-03-13T16:58:30.649Z,1.20
2019-03-13T17:00:59.866Z,1.37
2019-03-13T17:03:29.136Z,1.27
2019-03-13T17:05:58.407Z,1.30
2019-03-13T17:08:30.673Z,1.42
2019-03-13T17:10:59.971Z,2.08
2019-03-13T17:13:29.152Z,1.27
2019-03-13T17:15:58.744Z,1.40
2019-03-13T17:18:28.032Z,1.98
2019-03-13T17:20:57.345Z,6.85
2019-03-13T17:23:26.586Z,6.40
2019-03-13T17:25:55.882Z,2.40
2019-03-13T17:28:25.215Z,2.45
2019-03-13T17:30:54.563Z,5.05
2019-03-13T17:33:23.975Z,2.25
2019-03-13T17:35:53.349Z,1.98
2019-03-13T17:38:23.035Z,1.45
2019-03-13T17:40:52.314Z,2.00
2019-03-13T17:43:21.651Z,2.08
2019-03-13T17:45:54.961Z,3.02
2019-03-13T17:48:24.335Z,2.00
2019-03-13T17:50:53.679Z,2.25
2019-03-13T17:53:24.403Z,3.83
2019-03-13T17:55:53.737Z,2.62
2019-03-13T17:58:22.994Z,2.55
2019-03-13T18:00:52.640Z,2.10
2019-03-13T18:03:22.737Z,2.85
2019-03-13T18:05:53.060Z,2.30
2019-03-13T18:08:22.391Z,2.50
2019-03-13T18:10:51.781Z,2.92
2019-03-13T18:13:21.081Z,2.80
2019-03-13T18:15:50.425Z,3.95
2019-03-13T18:18:20.289Z,3.20
2019-03-13T18:20:49.735Z,4.50
2019-03-13T18:23:18.998Z,3.33
2019-03-13T18:25:48.155Z,3.15
2019-03-13T18:28:17.381Z,4.15
2019-03-13T18:30:46.547Z,3.67
2019-03-13T18:33:15.957Z,3.60
2019-03-13T18:35:45.260Z,4.35
2019-03-13T18:38:14.498Z,4.20
2019-03-13T18:40:49.097Z,4.60
2019-03-13T18:43:19.601Z,6.25
2019-03-13T18:45:50.174Z,5.40
2019-03-13T18:48:22.733Z,4.35
2019-03-13T18:50:52.561Z,5.72
2019-03-13T18:53:22.537Z,17.05
2019-03-13T18:55:52.071Z,20.90
2019-03-13T18:58:21.332Z,10.43
2019-03-13T19:00:50.574Z,4.70
2019-03-13T19:03:19.729Z,11.85
2019-03-13T19:05:49.010Z,17.48
2019-03-13T19:08:18.250Z,8.13
2019-03-13T19:10:47.537Z,4.20
2019-03-13T19:13:16.893Z,4.37
2019-03-13T19:15:46.189Z,3.50
2019-03-13T19:18:15.600Z,6.40
2019-03-13T19:20:45.104Z,3.72
2019-03-13T19:23:15.056Z,3.72
2019-03-13T19:25:45.904Z,4.37
2019-03-13T19:28:15.310Z,3.75
2019-03-13T19:30:46.312Z,6.00
2019-03-13T19:33:15.547Z,3.42
2019-03-13T19:35:44.949Z,4.65
2019-03-13T19:38:14.282Z,3.60
2019-03-13T19:40:44.796Z,3.75
2019-03-13T19:43:14.020Z,2.95
2019-03-13T19:45:43.205Z,3.62
2019-03-13T19:48:13.587Z,2.60
2019-03-13T19:50:44.162Z,2.77
2019-03-13T19:53:14.041Z,4.83
2019-03-13T19:55:43.191Z,2.83
2019-03-13T19:58:12.493Z,3.60
2019-03-13T20:00:41.761Z,3.10
2019-03-13T20:03:11.527Z,2.98
2019-03-13T20:05:51.599Z,3.80
2019-03-13T20:08:26.877Z,6.87
2019-03-13T20:10:59.459Z,3.83
2019-03-13T20:13:29.183Z,3.70
2019-03-13T20:15:59.551Z,3.77
2019-03-13T20:18:28.971Z,4.60
2019-03-13T20:20:58.850Z,4.40
2019-03-13T20:23:28.199Z,4.28
2019-03-13T20:25:57.812Z,3.12
2019-03-13T20:28:27.055Z,4.17
2019-03-13T20:30:56.484Z,4.00
2019-03-13T20:33:26.012Z,4.25
2019-03-13T20:35:56.641Z,4.28
2019-03-13T20:38:26.189Z,4.28
2019-03-13T20:40:55.622Z,4.67
2019-03-13T20:43:24.923Z,5.17
2019-03-13T20:45:54.250Z,3.80
2019-03-13T20:48:25.089Z,4.65
2019-03-13T20:50:56.290Z,5.22
2019-03-13T20:53:30.161Z,4.28
2019-03-13T20:56:02.158Z,4.22
2019-03-13T20:58:31.466Z,3.85
2019-03-13T21:01:02.644Z,4.00
2019-03-13T21:03:31.966Z,5.60
2019-03-13T21:06:01.987Z,4.53
2019-03-13T21:08:34.521Z,5.40
2019-03-13T21:11:03.782Z,4.00
2019-03-13T21:13:34.016Z,3.25
2019-03-13T21:16:03.350Z,3.67
2019-03-13T21:18:32.516Z,3.25
2019-03-13T21:21:01.704Z,3.30
2019-03-13T21:23:30.942Z,3.65
2019-03-13T21:26:00.154Z,2.67
2019-03-13T21:28:29.480Z,2.30
2019-03-13T21:31:04.154Z,2.60
2019-03-13T21:33:33.594Z,2.72
2019-03-13T21:36:02.874Z,2.52
2019-03-13T21:38:32.076Z,2.37
2019-03-13T21:41:01.352Z,2.52
2019-03-13T21:43:30.539Z,2.65
2019-03-13T21:45:59.715Z,3.00
2019-03-13T21:48:28.974Z,2.77
2019-03-13T21:50:58.222Z,3.30
2019-03-13T21:53:27.309Z,2.02
2019-03-13T21:55:56.469Z,3.30
2019-03-13T21:58:25.681Z,2.83
2019-03-13T22:00:54.916Z,3.33
2019-03-13T22:03:29.753Z,4.15
2019-03-13T22:05:54.900Z,3.35
2019-03-13T22:08:24.078Z,4.35
2019-03-13T22:10:53.762Z,4.40
2019-03-13T22:13:22.894Z,3.22
2019-03-13T22:15:52.092Z,3.12
2019-03-13T22:18:21.215Z,3.80
2019-03-13T22:20:50.467Z,3.12
2019-03-13T22:23:19.675Z,4.08
2019-03-13T22:25:48.801Z,3.60
2019-03-13T22:28:17.937Z,3.83
2019-03-13T22:30:47.097Z,3.77
2019-03-13T22:33:16.223Z,4.85
2019-03-13T22:35:45.352Z,4.20
2019-03-13T22:38:14.829Z,3.35
2019-03-13T22:40:44.094Z,3.47
2019-03-13T22:43:13.216Z,3.42
2019-03-13T22:45:43.831Z,2.98
2019-03-13T22:48:13.048Z,3.22
2019-03-13T22:50:42.158Z,3.10
2019-03-13T22:53:11.327Z,2.60
2019-03-13T22:55:41.146Z,2.08
2019-03-13T22:58:10.418Z,2.70
2019-03-13T23:01:01.910Z,2.62
2019-03-13T23:03:31.665Z,2.33
2019-03-13T23:06:00.805Z,2.87
2019-03-13T23:08:31.181Z,1.80
2019-03-13T23:11:00.645Z,3.62
2019-03-13T23:13:29.864Z,2.00
2019-03-13T23:15:59.087Z,2.52
2019-03-13T23:18:28.275Z,2.33
2019-03-13T23:20:57.574Z,2.35
2019-03-13T23:23:53.163Z,2.17
2019-03-13T23:26:22.373Z,2.70
2019-03-13T23:28:51.715Z,2.33
2019-03-13T23:31:20.876Z,1.77
2019-03-13T23:33:50.059Z,2.30
2019-03-13T23:36:19.267Z,1.77
2019-03-13T23:38:48.417Z,1.80
2019-03-13T23:41:17.619Z,2.00
2019-03-13T23:43:46.785Z,2.58
2019-03-13T23:46:16.017Z,1.87
2019-03-13T23:48:45.161Z,1.85
2019-03-13T23:51:14.402Z,1.85
2019-03-13T23:53:43.515Z,1.82
2019-03-13T23:56:12.670Z,2.45
2019-03-13T23:58:41.882Z,1.77
